Terminal Aerodrome Forecast
Issued by NWS Cleveland, OH

Home | Current Version | Previous Version | Text Only | Print | Product List | Glossary On
Versions: 1 2 3 4 5 6 7 8 9 10 11 12 13 14 15 16 17 18
000
FTUS41 KCLE 312300
TAFCAK
TAF
KCAK 312327Z 0100/0124 23005KT 5SM -SHRA SCT015 OVC025
      TEMPO 0101/0102 4SM -SHRA BR SCT008 OVC015
     FM010200 02010KT 3SM -SHRA BR OVC008
     FM010400 02012G20KT 2SM -SHRA BR OVC008
     FM011400 01014G21KT 4SM -RASN BR OVC015=

USA.gov is the U.S. government's official web portal to all federal, state and local government web resources and services.